Time;durP1;ratioP1;P1;durP2;ratioP2;P2;SDS_P1;SDS_P2;PMS_P1;PMS_P2;Temp;Humidity;BMP_temperature;BMP_pressure;BME280_temperature;BME280_humidity;BME280_pressure;Samples;Min_cycle;Max_cycle;Signal;HPM_P1;HPM_P2
2022/12/10 00:00:16;;;;;;;19.20;14.53;;;2.80;99.90;;;;;;4990096;28;20198;-83
2022/12/10 00:02:42;;;;;;;17.43;14.77;;;2.80;99.90;;;;;;5002589;28;20190;-83
2022/12/10 00:05:07;;;;;;;16.67;14.47;;;2.80;99.90;;;;;;4977091;28;20276;-83
2022/12/10 00:07:33;;;;;;;16.47;14.73;;;2.80;99.90;;;;;;4978518;28;20198;-83
2022/12/10 00:09:59;;;;;;;16.57;14.77;;;2.80;99.90;;;;;;4984639;28;20198;-85
2022/12/10 00:12:24;;;;;;;20.97;15.57;;;2.80;99.90;;;;;;4983236;28;20218;-83
2022/12/10 00:14:50;;;;;;;19.03;14.10;;;2.80;99.90;;;;;;4975568;28;20206;-84
2022/12/10 00:17:15;;;;;;;17.30;14.77;;;2.70;99.90;;;;;;4976497;28;20197;-83
2022/12/10 00:19:41;;;;;;;17.13;14.23;;;2.80;99.90;;;;;;4985970;28;20202;-84
2022/12/10 00:22:07;;;;;;;16.47;14.67;;;2.70;99.90;;;;;;4980567;28;20208;-83
2022/12/10 00:24:32;;;;;;;16.67;13.60;;;2.70;99.90;;;;;;4982703;28;20257;-83
2022/12/10 00:26:58;;;;;;;19.30;15.33;;;2.70;99.90;;;;;;4977628;28;20206;-83
2022/12/10 00:29:24;;;;;;;18.80;15.37;;;2.70;99.90;;;;;;4975218;28;20190;-86
2022/12/10 00:31:49;;;;;;;16.30;14.17;;;2.70;99.90;;;;;;4975903;28;20211;-83
2022/12/10 00:34:15;;;;;;;17.10;13.83;;;2.80;99.90;;;;;;4979072;28;20220;-83
2022/12/10 00:36:44;;;;;;;16.40;14.67;;;2.80;99.90;;;;;;4978761;28;20214;-82
2022/12/10 00:39:12;;;;;;;19.50;15.20;;;2.70;99.90;;;;;;4990705;28;20190;-83
2022/12/10 00:41:38;;;;;;;18.33;14.50;;;2.80;99.90;;;;;;4976190;28;20206;-83
2022/12/10 00:44:03;;;;;;;17.20;15.13;;;2.80;99.90;;;;;;4978129;28;20214;-83
2022/12/10 00:46:29;;;;;;;16.87;14.70;;;2.90;99.90;;;;;;4982849;28;20187;-83
2022/12/10 00:48:55;;;;;;;15.67;14.00;;;2.90;99.90;;;;;;4991811;28;20217;-83
2022/12/10 00:51:25;;;;;;;16.83;14.77;;;2.90;99.90;;;;;;4980765;28;20210;-86
2022/12/10 00:53:53;;;;;;;17.97;14.80;;;2.90;99.90;;;;;;4979637;28;20293;-83
2022/12/10 00:56:21;;;;;;;17.00;15.23;;;3.00;99.90;;;;;;4980713;28;20270;-83
2022/12/10 00:58:48;;;;;;;16.60;14.80;;;2.90;99.90;;;;;;4985894;28;20194;-85
2022/12/10 01:01:16;;;;;;;16.30;14.60;;;2.90;99.90;;;;;;4982743;28;20190;-84
2022/12/10 01:03:43;;;;;;;17.07;15.27;;;2.90;99.90;;;;;;4974235;28;20764;-83
2022/12/10 01:06:13;;;;;;;18.13;15.30;;;2.90;99.90;;;;;;4975381;28;20226;-83
2022/12/10 01:08:39;;;;;;;16.83;14.97;;;2.90;99.90;;;;;;4985036;28;20201;-82
2022/12/10 01:11:06;;;;;;;17.00;15.03;;;3.00;99.90;;;;;;4988319;28;20195;-81
2022/12/10 01:13:31;;;;;;;18.03;15.33;;;2.90;99.90;;;;;;4983718;28;20219;-85
2022/12/10 01:16:00;;;;;;;16.77;15.03;;;2.90;99.90;;;;;;4982240;28;20276;-82
2022/12/10 01:18:26;;;;;;;18.37;15.53;;;2.90;99.90;;;;;;4990657;28;20275;-83
2022/12/10 01:20:52;;;;;;;16.17;14.27;;;2.90;99.90;;;;;;4986825;28;20210;-83
2022/12/10 01:23:17;;;;;;;17.23;14.30;;;2.90;99.90;;;;;;4980385;28;20278;-85
2022/12/10 01:25:43;;;;;;;16.37;14.67;;;2.90;99.90;;;;;;4977694;28;20204;-83
2022/12/10 01:28:08;;;;;;;17.13;15.43;;;2.90;99.90;;;;;;5004933;28;20248;-84
2022/12/10 01:30:34;;;;;;;17.53;14.77;;;3.00;99.90;;;;;;4989839;28;20187;-83
2022/12/10 01:33:00;;;;;;;15.60;13.87;;;3.00;99.90;;;;;;4990177;28;20210;-82
2022/12/10 01:35:25;;;;;;;19.00;15.73;;;3.00;99.90;;;;;;4979306;28;20207;-83
2022/12/10 01:37:51;;;;;;;16.03;14.33;;;3.00;99.60;;;;;;4990427;28;20208;-86
2022/12/10 01:40:17;;;;;;;17.50;15.03;;;3.00;99.70;;;;;;4988689;28;20191;-84
2022/12/10 01:42:42;;;;;;;17.60;15.80;;;3.00;99.80;;;;;;4978780;28;20188;-83
2022/12/10 01:45:11;;;;;;;19.37;16.60;;;3.00;99.70;;;;;;4977993;28;20266;-83
2022/12/10 01:47:38;;;;;;;17.60;15.80;;;3.00;99.50;;;;;;4977668;28;20202;-85
2022/12/10 01:50:05;;;;;;;17.17;15.03;;;3.00;99.60;;;;;;4978332;28;20194;-86
2022/12/10 01:52:31;;;;;;;18.23;16.33;;;3.00;99.50;;;;;;4978421;28;20218;-83
2022/12/10 01:54:57;;;;;;;17.33;15.37;;;3.00;99.90;;;;;;4978086;28;20207;-82
2022/12/10 01:57:26;;;;;;;16.50;14.67;;;3.00;99.90;;;;;;4980924;28;20221;-84
2022/12/10 02:00:00;;;;;;;17.90;15.90;;;3.00;99.90;;;;;;4985675;28;20187;-86
2022/12/10 02:02:42;;;;;;;16.67;14.93;;;3.10;99.80;;;;;;4982777;28;20689;-83
2022/12/10 02:05:22;;;;;;;17.20;15.13;;;3.00;99.90;;;;;;4979497;28;20209;-84
2022/12/10 02:08:10;;;;;;;19.73;14.87;;;3.00;99.70;;;;;;4978722;28;20185;-85
2022/12/10 02:10:59;;;;;;;16.93;15.13;;;3.00;99.50;;;;;;4981877;28;20254;-83
2022/12/10 02:13:37;;;;;;;17.17;15.23;;;3.00;99.90;;;;;;4967796;28;20223;-83
2022/12/10 02:16:13;;;;;;;18.50;16.60;;;2.90;99.90;;;;;;4988954;28;20202;-86
2022/12/10 02:18:49;;;;;;;17.73;15.50;;;2.90;99.80;;;;;;4988850;28;20548;-84
2022/12/10 02:21:23;;;;;;;18.77;16.30;;;2.80;99.80;;;;;;4981512;28;20195;-85
2022/12/10 02:24:05;;;;;;;20.70;16.93;;;2.80;99.90;;;;;;4976007;28;20202;-85
2022/12/10 02:26:51;;;;;;;19.50;16.30;;;2.70;99.90;;;;;;4977591;28;20183;-84
2022/12/10 02:29:19;;;;;;;20.00;16.70;;;2.70;99.90;;;;;;4976456;28;20193;-83
2022/12/10 02:32:00;;;;;;;21.90;17.47;;;2.60;99.90;;;;;;4977739;28;20219;-83
2022/12/10 02:34:30;;;;;;;19.90;16.63;;;2.60;99.90;;;;;;4982873;28;20730;-85
2022/12/10 02:36:59;;;;;;;19.33;16.90;;;2.50;99.90;;;;;;4977152;28;20186;-84
2022/12/10 02:39:31;;;;;;;21.83;15.97;;;2.50;99.90;;;;;;4979021;28;20183;-83
2022/12/10 02:41:59;;;;;;;19.80;16.97;;;2.40;99.90;;;;;;4980357;28;20210;-83
2022/12/10 02:44:27;;;;;;;19.90;16.80;;;2.40;99.90;;;;;;4978738;28;20230;-83
2022/12/10 02:46:55;;;;;;;20.73;16.33;;;2.40;99.90;;;;;;4983291;28;20192;-85
2022/12/10 02:49:23;;;;;;;20.87;16.07;;;2.30;99.90;;;;;;4983619;28;20194;-83
2022/12/10 02:51:49;;;;;;;19.10;17.07;;;2.40;99.90;;;;;;4977353;28;20214;-84
2022/12/10 02:54:52;;;;;;;22.13;17.27;;;2.30;99.90;;;;;;5008612;28;20210;-83
2022/12/10 02:57:42;;;;;;;20.27;16.47;;;2.30;99.90;;;;;;4987589;28;20194;-84
2022/12/10 03:00:21;;;;;;;20.07;16.53;;;2.30;99.90;;;;;;4979819;28;20258;-83
2022/12/10 03:02:55;;;;;;;20.20;16.37;;;2.30;99.90;;;;;;4999052;28;20189;-85
2022/12/10 03:05:33;;;;;;;19.67;17.00;;;2.40;99.90;;;;;;4979426;28;20205;-84
2022/12/10 03:08:26;;;;;;;20.77;17.23;;;2.50;99.90;;;;;;4975796;28;20275;-83
2022/12/10 03:11:10;;;;;;;21.30;17.13;;;2.50;99.90;;;;;;4977958;28;20197;-83
2022/12/10 03:13:42;;;;;;;21.13;16.90;;;2.40;99.90;;;;;;4977274;28;20218;-84
2022/12/10 03:16:09;;;;;;;21.53;16.57;;;2.50;99.90;;;;;;4977731;28;20191;-87
2022/12/10 03:18:37;;;;;;;22.20;16.80;;;2.50;99.90;;;;;;4976979;28;20234;-84
2022/12/10 03:21:05;;;;;;;19.17;16.00;;;2.50;99.90;;;;;;4977758;28;20568;-84
2022/12/10 03:23:36;;;;;;;21.13;17.43;;;2.50;99.90;;;;;;4984283;28;20207;-84
2022/12/10 03:26:03;;;;;;;20.87;17.17;;;2.50;99.90;;;;;;4978242;28;20675;-84
2022/12/10 03:28:35;;;;;;;19.93;15.73;;;2.50;99.90;;;;;;4976388;28;20191;-84
2022/12/10 03:31:03;;;;;;;21.20;16.63;;;2.60;99.90;;;;;;4977305;28;20186;-84
2022/12/10 03:33:28;;;;;;;22.17;17.03;;;2.50;99.90;;;;;;4976782;28;20213;-84
2022/12/10 03:35:55;;;;;;;17.87;15.13;;;2.60;99.90;;;;;;4983451;28;20617;-85
2022/12/10 03:38:21;;;;;;;19.03;15.87;;;2.60;99.90;;;;;;4985168;28;20187;-84
2022/12/10 03:40:47;;;;;;;19.50;16.33;;;2.60;99.90;;;;;;4996424;28;20170;-86
2022/12/10 03:43:13;;;;;;;19.77;16.83;;;2.70;99.90;;;;;;4990145;28;20284;-83
2022/12/10 03:45:40;;;;;;;17.93;15.90;;;2.70;99.90;;;;;;4988028;28;20194;-82
2022/12/10 03:48:06;;;;;;;20.23;17.03;;;2.70;99.90;;;;;;4981829;28;20351;-83
2022/12/10 03:50:31;;;;;;;22.10;17.40;;;2.70;99.90;;;;;;4975676;28;20275;-83
2022/12/10 03:52:57;;;;;;;20.63;17.53;;;2.60;99.90;;;;;;4977389;28;20572;-84
2022/12/10 03:55:23;;;;;;;20.83;17.17;;;2.60;99.90;;;;;;4984751;28;20237;-81
2022/12/10 03:57:48;;;;;;;19.50;17.33;;;2.70;99.90;;;;;;4981032;28;20194;-83
2022/12/10 04:00:15;;;;;;;22.10;17.23;;;2.60;99.90;;;;;;4975984;28;20238;-84
2022/12/10 04:02:41;;;;;;;19.90;16.90;;;2.60;99.90;;;;;;4976581;28;20225;-84
2022/12/10 04:05:07;;;;;;;19.63;16.87;;;2.70;99.90;;;;;;4981032;28;20217;-83
2022/12/10 04:07:33;;;;;;;21.17;17.13;;;2.60;99.90;;;;;;4976110;28;20187;-84
2022/12/10 04:09:59;;;;;;;19.67;16.60;;;2.60;99.90;;;;;;4973837;28;20187;-83
2022/12/10 04:12:24;;;;;;;20.37;16.57;;;2.70;99.90;;;;;;4977940;28;20521;-83
2022/12/10 04:17:35;;;;;;;18.40;16.43;;;2.70;99.90;;;;;;4976311;28;20548;-84
2022/12/10 04:20:01;;;;;;;20.80;17.13;;;2.70;99.90;;;;;;4975643;28;20202;-85
2022/12/10 04:27:56;;;;;;;20.63;16.97;;;2.70;99.90;;;;;;4980381;28;20286;-84
2022/12/10 04:30:22;;;;;;;20.53;17.17;;;2.70;99.90;;;;;;4981939;28;20274;-84
2022/12/10 04:32:47;;;;;;;20.60;17.83;;;2.60;99.90;;;;;;4983327;28;20230;-84
2022/12/10 04:35:13;;;;;;;22.43;17.03;;;2.60;99.90;;;;;;4982517;28;20465;-85
2022/12/10 04:37:39;;;;;;;20.97;17.80;;;2.60;99.90;;;;;;4995091;28;20648;-85
2022/12/10 04:40:05;;;;;;;21.70;17.50;;;2.60;99.90;;;;;;4987935;28;20194;-83
2022/12/10 04:42:31;;;;;;;20.57;17.70;;;2.60;99.90;;;;;;4991110;28;20201;-85
2022/12/10 04:44:57;;;;;;;22.70;18.00;;;2.60;99.90;;;;;;4977485;28;20214;-84
2022/12/10 04:47:22;;;;;;;20.00;17.67;;;2.50;99.90;;;;;;4980693;28;20203;-84
2022/12/10 04:49:48;;;;;;;23.27;18.13;;;2.50;99.90;;;;;;5008106;28;20261;-83
2022/12/10 04:52:15;;;;;;;22.90;18.67;;;2.50;99.90;;;;;;4987156;28;20679;-84
2022/12/10 04:54:43;;;;;;;20.97;18.27;;;2.40;99.90;;;;;;4984698;28;20211;-84
2022/12/10 04:57:10;;;;;;;20.07;17.60;;;2.40;99.90;;;;;;4984997;28;20191;-84
2022/12/10 04:59:36;;;;;;;24.17;19.30;;;2.30;99.90;;;;;;4990198;28;20246;-84
2022/12/10 05:02:03;;;;;;;23.17;18.80;;;2.20;99.90;;;;;;4981374;28;20262;-85
2022/12/10 05:04:29;;;;;;;23.87;18.90;;;2.20;99.90;;;;;;4985388;28;20364;-84
2022/12/10 05:06:54;;;;;;;23.03;18.43;;;2.10;99.90;;;;;;4984314;28;20243;-84
2022/12/10 05:09:20;;;;;;;24.17;19.53;;;2.10;99.90;;;;;;4982170;28;20206;-84
2022/12/10 05:11:46;;;;;;;24.37;17.87;;;2.10;99.90;;;;;;4991101;28;20210;-83
2022/12/10 05:14:14;;;;;;;23.00;18.60;;;2.00;99.90;;;;;;4986996;28;20222;-83
2022/12/10 05:16:40;;;;;;;23.43;18.50;;;2.00;99.90;;;;;;4983922;28;20722;-83
2022/12/10 05:19:05;;;;;;;22.63;19.17;;;2.00;99.90;;;;;;4981098;28;20201;-84
2022/12/10 05:24:17;;;;;;;23.73;18.80;;;2.00;99.90;;;;;;4983355;28;20209;-83
2022/12/10 05:26:43;;;;;;;23.50;19.03;;;2.10;99.90;;;;;;4983087;28;20187;-83
2022/12/10 05:29:09;;;;;;;23.97;19.57;;;2.00;99.90;;;;;;4981671;28;20665;-84
2022/12/10 05:31:35;;;;;;;24.00;19.40;;;2.00;99.90;;;;;;4987540;28;20265;-83
2022/12/10 05:34:01;;;;;;;25.10;19.40;;;2.00;99.90;;;;;;4986283;28;20213;-83
2022/12/10 05:36:29;;;;;;;24.70;20.93;;;2.00;99.90;;;;;;4983028;28;20179;-84
2022/12/10 05:38:57;;;;;;;27.10;20.67;;;2.00;99.90;;;;;;4991957;28;20217;-84
2022/12/10 05:41:26;;;;;;;25.17;20.17;;;2.00;99.90;;;;;;4994365;28;20194;-83
2022/12/10 05:43:54;;;;;;;24.33;19.60;;;2.00;99.90;;;;;;4989809;28;20279;-84
2022/12/10 05:46:23;;;;;;;22.43;19.37;;;2.00;99.90;;;;;;4978751;28;20801;-86
2022/12/10 05:48:49;;;;;;;26.57;20.13;;;2.00;99.90;;;;;;4993002;28;20202;-83
2022/12/10 05:51:21;;;;;;;22.90;18.90;;;2.10;99.90;;;;;;5001465;28;20191;-83
2022/12/10 05:53:47;;;;;;;24.17;19.60;;;2.10;99.90;;;;;;4980066;28;20261;-86
2022/12/10 05:56:15;;;;;;;23.77;19.40;;;2.00;99.90;;;;;;4998964;28;20236;-84
2022/12/10 05:58:44;;;;;;;25.60;19.20;;;2.00;99.90;;;;;;4980472;28;20234;-84
2022/12/10 06:01:13;;;;;;;23.67;19.87;;;2.00;99.90;;;;;;4982495;28;20553;-84
2022/12/10 06:03:39;;;;;;;23.13;18.40;;;1.90;99.90;;;;;;4980582;28;20226;-84
2022/12/10 06:06:06;;;;;;;23.80;19.63;;;1.90;99.90;;;;;;4981538;28;20198;-84
2022/12/10 06:08:32;;;;;;;24.83;19.83;;;1.90;99.90;;;;;;4989216;28;20182;-84
2022/12/10 06:11:02;;;;;;;25.70;20.00;;;1.90;99.90;;;;;;4998191;28;20197;-83
2022/12/10 06:13:27;;;;;;;26.70;19.37;;;1.90;99.90;;;;;;4995688;28;20289;-84
2022/12/10 06:15:53;;;;;;;25.17;19.53;;;2.00;99.90;;;;;;4986727;28;20749;-84
2022/12/10 06:18:19;;;;;;;26.77;18.83;;;2.00;99.90;;;;;;4984620;28;20251;-83
2022/12/10 06:20:44;;;;;;;25.13;19.63;;;2.00;99.90;;;;;;4983422;28;20225;-84
2022/12/10 06:23:10;;;;;;;23.93;19.67;;;2.00;99.90;;;;;;4985072;28;20230;-83
2022/12/10 06:25:38;;;;;;;22.00;18.90;;;2.00;99.90;;;;;;4994024;28;20651;-86
2022/12/10 06:28:05;;;;;;;23.67;18.97;;;2.10;99.90;;;;;;4980074;28;20274;-84
2022/12/10 06:30:31;;;;;;;22.60;18.43;;;2.10;99.90;;;;;;4984367;28;20231;-83
2022/12/10 06:32:57;;;;;;;26.90;19.40;;;2.00;99.90;;;;;;4999180;28;20713;-84
2022/12/10 06:35:24;;;;;;;23.47;19.17;;;2.00;99.90;;;;;;4985166;28;20230;-84
2022/12/10 06:37:50;;;;;;;24.70;19.93;;;2.00;99.90;;;;;;4988752;28;20190;-82
2022/12/10 06:40:16;;;;;;;22.67;18.80;;;1.90;99.90;;;;;;4990069;28;20194;-84
2022/12/10 06:42:41;;;;;;;27.50;20.40;;;2.00;99.90;;;;;;4984201;28;20197;-83
2022/12/10 06:45:08;;;;;;;24.77;19.47;;;2.00;99.90;;;;;;4983686;28;20230;-83
2022/12/10 06:47:33;;;;;;;21.53;19.23;;;2.10;99.90;;;;;;4983019;28;20274;-84
2022/12/10 06:49:59;;;;;;;25.27;19.50;;;2.10;99.90;;;;;;4982300;28;20625;-85
2022/12/10 06:52:25;;;;;;;28.10;20.63;;;2.10;99.90;;;;;;4981607;28;20238;-82
2022/12/10 06:54:50;;;;;;;25.37;19.53;;;2.10;99.90;;;;;;4992468;28;20754;-82
2022/12/10 06:57:16;;;;;;;23.07;19.07;;;2.10;99.90;;;;;;5001137;28;20194;-83
2022/12/10 06:59:42;;;;;;;22.97;19.03;;;2.10;99.90;;;;;;4987348;28;20183;-84
2022/12/10 07:02:09;;;;;;;22.43;18.83;;;2.10;99.90;;;;;;4984331;28;20221;-85
2022/12/10 07:04:35;;;;;;;24.47;18.97;;;2.00;99.90;;;;;;4979768;28;20207;-82
2022/12/10 07:07:00;;;;;;;24.20;19.67;;;2.00;99.90;;;;;;4982823;28;20233;-83
2022/12/10 07:09:26;;;;;;;24.47;19.60;;;1.90;99.90;;;;;;4989475;28;20209;-86
2022/12/10 07:11:51;;;;;;;24.13;18.27;;;2.00;99.90;;;;;;4984865;28;20230;-83
2022/12/10 07:14:18;;;;;;;25.60;20.03;;;2.00;99.90;;;;;;4978626;28;20206;-83
2022/12/10 07:16:44;;;;;;;23.30;17.87;;;2.00;99.90;;;;;;4981744;28;20621;-84
2022/12/10 07:19:11;;;;;;;23.20;18.77;;;2.00;99.90;;;;;;4978953;28;20199;-83
2022/12/10 07:21:40;;;;;;;26.13;19.57;;;1.90;99.90;;;;;;4980364;28;20214;-84
2022/12/10 07:24:18;;;;;;;25.63;19.60;;;1.90;99.90;;;;;;4981958;28;20210;-84
2022/12/10 07:26:45;;;;;;;23.13;19.27;;;1.90;99.90;;;;;;4977385;28;20195;-83
2022/12/10 07:29:19;;;;;;;20.87;18.50;;;1.90;99.90;;;;;;4978731;28;20191;-84
2022/12/10 07:31:45;;;;;;;24.77;19.40;;;1.80;99.90;;;;;;4979854;28;20205;-83
2022/12/10 07:34:12;;;;;;;24.27;19.43;;;1.80;99.90;;;;;;4978641;28;20760;-81
2022/12/10 07:36:37;;;;;;;40.63;28.57;;;1.90;99.90;;;;;;4978057;28;20183;-83
2022/12/10 07:39:06;;;;;;;52.97;38.93;;;1.90;99.90;;;;;;4979517;28;20202;-83
2022/12/10 07:41:32;;;;;;;29.13;23.80;;;1.90;99.90;;;;;;4983362;28;20185;-83
2022/12/10 07:43:58;;;;;;;25.37;20.67;;;2.00;99.90;;;;;;4985030;28;20289;-83
2022/12/10 07:46:27;;;;;;;26.83;20.83;;;2.00;99.90;;;;;;4980832;28;20246;-85
2022/12/10 07:48:53;;;;;;;30.03;24.73;;;2.10;99.90;;;;;;4986460;28;20194;-84
2022/12/10 07:51:21;;;;;;;33.07;26.17;;;2.10;99.90;;;;;;4983694;28;20191;-80
2022/12/10 07:53:47;;;;;;;28.87;24.50;;;2.10;99.90;;;;;;4980965;28;20229;-84
2022/12/10 07:56:13;;;;;;;24.60;20.87;;;2.10;99.90;;;;;;4977543;28;20198;-85
2022/12/10 07:58:44;;;;;;;24.47;19.43;;;2.10;99.90;;;;;;4979868;28;20194;-85
2022/12/10 08:01:13;;;;;;;23.40;19.23;;;2.10;99.60;;;;;;4979658;28;20178;-82
2022/12/10 08:03:39;;;;;;;20.23;17.77;;;2.10;99.50;;;;;;4989603;28;20211;-82
2022/12/10 08:06:08;;;;;;;22.50;17.93;;;2.10;99.30;;;;;;4992069;28;20221;-84
2022/12/10 08:08:35;;;;;;;22.17;18.27;;;2.20;98.70;;;;;;4992541;28;20174;-83
2022/12/10 08:11:02;;;;;;;19.33;16.73;;;2.20;98.50;;;;;;4987746;28;20190;-85
2022/12/10 08:13:28;;;;;;;25.50;17.90;;;2.10;98.70;;;;;;4989997;28;20314;-84
2022/12/10 08:15:54;;;;;;;22.43;18.90;;;2.00;98.80;;;;;;4988995;28;20174;-84
2022/12/10 08:18:20;;;;;;;23.50;18.93;;;1.90;99.60;;;;;;4989167;28;20183;-85
2022/12/10 08:20:46;;;;;;;25.43;19.50;;;2.00;99.90;;;;;;4993040;28;20190;-83
2022/12/10 08:23:12;;;;;;;25.00;20.33;;;1.90;99.20;;;;;;4997293;28;20216;-83
2022/12/10 08:25:37;;;;;;;25.07;18.13;;;1.90;99.70;;;;;;4993853;28;20235;-86
2022/12/10 08:28:03;;;;;;;21.37;17.27;;;1.90;99.50;;;;;;4992521;28;20194;-83
2022/12/10 08:30:30;;;;;;;24.93;18.37;;;1.90;99.40;;;;;;4986713;28;20249;-84
2022/12/10 08:32:55;;;;;;;39.53;21.10;;;1.90;99.70;;;;;;4985216;28;20362;-84
2022/12/10 08:35:21;;;;;;;26.23;18.60;;;1.90;99.90;;;;;;4983826;28;20692;-85
2022/12/10 08:37:46;;;;;;;28.57;22.50;;;1.90;99.70;;;;;;4988479;28;20190;-84
2022/12/10 08:40:12;;;;;;;34.67;19.67;;;2.00;99.50;;;;;;4989001;28;20213;-84
2022/12/10 08:42:38;;;;;;;36.27;20.40;;;1.90;99.50;;;;;;4994225;28;20186;-85
2022/12/10 08:45:05;;;;;;;31.87;19.03;;;2.00;99.90;;;;;;4987550;28;20352;-84
2022/12/10 08:47:31;;;;;;;21.03;16.67;;;2.00;99.90;;;;;;4990012;28;20202;-85
2022/12/10 08:49:56;;;;;;;19.80;16.40;;;2.20;99.20;;;;;;4985066;28;20187;-85
2022/12/10 08:52:22;;;;;;;22.90;17.70;;;2.20;98.60;;;;;;4996209;28;20212;-84
2022/12/10 08:54:47;;;;;;;24.93;20.50;;;2.30;98.60;;;;;;4991859;28;20709;-85
2022/12/10 08:57:13;;;;;;;31.70;18.63;;;2.30;97.90;;;;;;4989884;28;20214;-85
2022/12/10 08:59:39;;;;;;;22.47;18.23;;;2.30;97.60;;;;;;4986825;28;20649;-84
2022/12/10 09:02:04;;;;;;;21.77;17.60;;;2.30;97.70;;;;;;4984013;28;20194;-83
2022/12/10 09:04:30;;;;;;;26.97;17.23;;;2.40;98.60;;;;;;4989521;28;20219;-84
2022/12/10 09:06:56;;;;;;;25.80;16.80;;;2.30;96.70;;;;;;4984944;28;20209;-85
2022/12/10 09:09:21;;;;;;;22.70;16.33;;;2.40;96.50;;;;;;5002124;28;20579;-84
2022/12/10 09:11:47;;;;;;;24.53;16.67;;;2.30;96.10;;;;;;4999084;28;20216;-83
2022/12/10 09:14:13;;;;;;;20.20;15.43;;;2.30;96.10;;;;;;4989042;28;21009;-84
2022/12/10 09:16:39;;;;;;;17.70;14.53;;;2.20;96.20;;;;;;4986666;28;20194;-86
2022/12/10 09:19:05;;;;;;;18.20;14.53;;;2.20;95.60;;;;;;4985434;28;20232;-83
2022/12/10 09:21:31;;;;;;;20.50;15.43;;;2.20;96.60;;;;;;4994033;28;20273;-82
2022/12/10 09:23:57;;;;;;;15.30;13.67;;;2.30;95.80;;;;;;4989471;28;20226;-84
2022/12/10 09:26:23;;;;;;;22.07;15.97;;;2.30;96.10;;;;;;4985834;28;20274;-84
2022/12/10 09:28:49;;;;;;;23.83;15.00;;;2.30;95.70;;;;;;4984844;28;20206;-84
2022/12/10 09:31:17;;;;;;;28.20;16.53;;;2.20;95.80;;;;;;4993536;28;20744;-84
2022/12/10 09:33:43;;;;;;;29.17;16.40;;;2.20;96.70;;;;;;4991867;28;20582;-84
2022/12/10 09:36:10;;;;;;;33.97;17.90;;;2.30;96.00;;;;;;4978165;28;20202;-85
2022/12/10 09:38:39;;;;;;;35.77;18.17;;;2.40;96.30;;;;;;4978426;28;20206;-84
2022/12/10 09:41:17;;;;;;;23.50;15.47;;;2.40;96.60;;;;;;4979623;28;20178;-84
2022/12/10 09:43:50;;;;;;;18.33;15.20;;;2.50;96.40;;;;;;4993340;28;20214;-84
2022/12/10 09:46:34;;;;;;;19.53;14.67;;;2.50;95.30;;;;;;4981623;28;20317;-83
2022/12/10 09:49:29;;;;;;;20.30;14.90;;;2.50;95.70;;;;;;4984174;28;20209;-83
2022/12/10 09:51:57;;;;;;;24.77;16.43;;;2.50;94.70;;;;;;4975532;28;20227;-82
2022/12/10 09:54:43;;;;;;;45.60;23.77;;;2.50;94.60;;;;;;4982574;28;20218;-83
2022/12/10 09:57:30;;;;;;;18.77;14.03;;;2.60;94.20;;;;;;4973546;28;20217;-83
2022/12/10 09:59:56;;;;;;;18.63;15.53;;;2.60;93.40;;;;;;4977733;28;20247;-84
2022/12/10 10:02:22;;;;;;;16.73;14.40;;;2.50;93.90;;;;;;4977674;28;20194;-83
2022/12/10 10:04:49;;;;;;;16.93;13.57;;;2.40;93.90;;;;;;4979082;28;20515;-83
2022/12/10 10:07:22;;;;;;;31.13;15.77;;;2.50;94.60;;;;;;4978023;28;20588;-83
2022/12/10 10:09:48;;;;;;;37.40;18.13;;;2.60;93.50;;;;;;4974544;28;20223;-83
2022/12/10 10:12:15;;;;;;;30.97;15.67;;;2.50;93.10;;;;;;4969025;28;20266;-83
2022/12/10 10:14:44;;;;;;;26.60;14.20;;;2.50;93.80;;;;;;4985851;28;20340;-84
2022/12/10 10:17:39;;;;;;;30.97;15.73;;;2.50;93.40;;;;;;4981703;28;20179;-83
2022/12/10 10:20:05;;;;;;;25.10;14.87;;;2.40;93.50;;;;;;4990295;28;20198;-84
2022/12/10 10:22:31;;;;;;;53.67;21.27;;;2.40;94.20;;;;;;4982524;28;20946;-83
2022/12/10 10:24:58;;;;;;;33.10;18.93;;;2.40;94.30;;;;;;4974700;28;20211;-84
2022/12/10 10:27:28;;;;;;;17.23;14.63;;;2.40;94.40;;;;;;4994096;28;20213;-86
2022/12/10 10:29:56;;;;;;;24.47;15.33;;;2.40;94.30;;;;;;5025602;28;20198;-84
2022/12/10 10:32:26;;;;;;;21.80;14.70;;;2.40;94.20;;;;;;4991257;28;20198;-83
2022/12/10 10:34:54;;;;;;;23.37;14.13;;;2.40;93.60;;;;;;5001712;28;20239;-85
2022/12/10 10:37:25;;;;;;;23.73;15.70;;;2.40;93.90;;;;;;4998191;28;20213;-85
2022/12/10 10:39:51;;;;;;;26.17;14.87;;;2.30;94.50;;;;;;4983858;28;20182;-82
2022/12/10 10:42:42;;;;;;;16.57;13.27;;;2.40;95.00;;;;;;4972739;28;20202;-83
2022/12/10 10:45:26;;;;;;;15.73;13.30;;;2.40;94.00;;;;;;4990826;28;20277;-83
2022/12/10 10:48:12;;;;;;;20.20;14.43;;;2.40;93.80;;;;;;4975837;28;20194;-85
2022/12/10 10:50:41;;;;;;;16.30;13.83;;;2.30;94.30;;;;;;4974089;28;20198;-84
2022/12/10 10:53:52;;;;;;;20.97;14.87;;;2.30;94.70;;;;;;4979040;28;20229;-83
2022/12/10 10:56:39;;;;;;;23.40;15.00;;;2.40;94.70;;;;;;4970491;28;20307;-84
2022/12/10 10:59:06;;;;;;;17.40;14.10;;;2.50;94.00;;;;;;4979924;28;20653;-84
2022/12/10 11:01:54;;;;;;;22.53;15.63;;;2.60;93.40;;;;;;4982250;28;20221;-84
2022/12/10 11:04:37;;;;;;;30.93;16.43;;;2.50;92.80;;;;;;4980765;28;20211;-83
2022/12/10 11:07:12;;;;;;;32.40;16.97;;;2.50;92.60;;;;;;4984467;28;20190;-84
2022/12/10 11:09:37;;;;;;;19.57;14.23;;;2.50;93.50;;;;;;4976887;28;20213;-84
2022/12/10 11:12:19;;;;;;;18.63;14.00;;;2.60;93.00;;;;;;4975825;28;20775;-85
2022/12/10 11:14:45;;;;;;;17.07;13.23;;;2.60;92.50;;;;;;4973394;28;20211;-85
2022/12/10 11:17:12;;;;;;;18.60;16.30;;;2.50;92.10;;;;;;4972051;28;20274;-84
2022/12/10 11:19:58;;;;;;;16.97;14.30;;;2.60;92.60;;;;;;4972099;28;20644;-83
2022/12/10 11:22:30;;;;;;;17.63;14.67;;;2.60;92.60;;;;;;4978116;28;20194;-86
2022/12/10 11:24:56;;;;;;;18.97;15.73;;;2.70;91.70;;;;;;4972939;28;20225;-84
2022/12/10 11:27:31;;;;;;;26.77;18.43;;;2.80;91.70;;;;;;4973367;28;20190;-82
2022/12/10 11:30:00;;;;;;;23.90;15.80;;;2.90;90.90;;;;;;4972667;28;20207;-83
2022/12/10 11:32:50;;;;;;;23.00;16.67;;;2.90;90.60;;;;;;4979025;28;20206;-83
2022/12/10 11:35:43;;;;;;;46.60;19.67;;;2.90;90.90;;;;;;4974699;28;20623;-85
2022/12/10 11:38:49;;;;;;;21.37;14.53;;;2.90;90.50;;;;;;4975912;28;20186;-82
2022/12/10 11:41:26;;;;;;;20.23;16.30;;;2.90;90.70;;;;;;4976090;28;20224;-85
2022/12/10 11:43:54;;;;;;;17.33;14.57;;;3.00;90.80;;;;;;4975891;28;20241;-84
2022/12/10 11:46:38;;;;;;;19.43;13.90;;;3.10;91.70;;;;;;4987149;28;20537;-84
2022/12/10 11:49:17;;;;;;;17.57;13.40;;;3.20;90.10;;;;;;4976697;28;20278;-84
2022/12/10 11:52:02;;;;;;;15.37;13.80;;;3.30;89.20;;;;;;4976745;28;20684;-83
2022/12/10 11:54:53;;;;;;;19.53;14.97;;;3.30;90.30;;;;;;4975582;28;20807;-84
2022/12/10 11:57:46;;;;;;;16.90;14.73;;;3.30;90.50;;;;;;4988538;28;20186;-83
2022/12/10 12:00:25;;;;;;;16.67;14.80;;;3.50;88.70;;;;;;4978081;28;20183;-83
2022/12/10 12:03:29;;;;;;;16.07;14.47;;;3.40;88.60;;;;;;4976073;28;20195;-83
2022/12/10 12:06:03;;;;;;;14.67;13.07;;;3.30;88.40;;;;;;4981750;28;20252;-83
2022/12/10 12:08:47;;;;;;;15.90;13.23;;;3.30;88.70;;;;;;4989704;28;20181;-82
2022/12/10 12:11:31;;;;;;;17.43;13.60;;;3.30;88.20;;;;;;4974169;28;20193;-82
2022/12/10 12:14:13;;;;;;;16.07;13.73;;;3.40;88.00;;;;;;4973807;28;20228;-84
2022/12/10 12:16:43;;;;;;;15.37;13.77;;;3.30;87.80;;;;;;4974067;28;20181;-83
2022/12/10 12:19:24;;;;;;;15.60;13.97;;;3.30;88.40;;;;;;4974472;28;20591;-83
2022/12/10 12:21:50;;;;;;;14.57;12.57;;;3.30;88.10;;;;;;4991180;28;20191;-83
2022/12/10 12:24:21;;;;;;;15.97;13.53;;;3.40;88.80;;;;;;4989210;28;20211;-83
2022/12/10 12:26:54;;;;;;;14.77;13.17;;;3.40;88.60;;;;;;4973985;28;20225;-83
2022/12/10 12:30:01;;;;;;;14.50;12.90;;;3.30;89.50;;;;;;4977741;28;20198;-83
2022/12/10 12:32:50;;;;;;;15.53;12.57;;;3.40;87.90;;;;;;4972805;28;20510;-83
2022/12/10 12:36:06;;;;;;;14.93;13.30;;;3.40;86.80;;;;;;4982885;28;20210;-83
2022/12/10 12:38:45;;;;;;;14.17;12.73;;;3.50;87.00;;;;;;4972364;28;20199;-83
2022/12/10 12:41:49;;;;;;;15.23;13.73;;;3.50;85.70;;;;;;4972059;28;20294;-85
2022/12/10 12:44:24;;;;;;;14.20;11.97;;;3.40;85.80;;;;;;4973079;28;20325;-82
2022/12/10 12:46:50;;;;;;;14.73;12.07;;;3.30;86.80;;;;;;4983345;28;20680;-84
2022/12/10 12:49:28;;;;;;;14.97;13.40;;;3.30;87.10;;;;;;4995659;28;20277;-85
2022/12/10 12:52:14;;;;;;;16.63;13.97;;;3.40;87.60;;;;;;4989834;28;20210;-83
2022/12/10 12:54:41;;;;;;;13.60;12.20;;;3.40;86.80;;;;;;4987507;28;20206;-83
2022/12/10 12:57:49;;;;;;;14.83;13.20;;;3.40;87.00;;;;;;4974132;28;20253;-83
2022/12/10 13:00:21;;;;;;;15.23;13.57;;;3.30;86.80;;;;;;4947381;29;20263;-83
2022/12/10 13:03:05;;;;;;;15.03;12.97;;;3.30;87.20;;;;;;4933110;29;20193;-84